createdAt,value
2022-12-04T00:01:15.619Z,18.90
2022-12-04T00:03:42.344Z,18.33
2022-12-04T00:06:17.509Z,17.23
2022-12-04T00:08:45.628Z,18.67
2022-12-04T00:11:14.160Z,18.60
2022-12-04T00:13:41.235Z,17.93
2022-12-04T00:16:11.546Z,16.53
2022-12-04T00:18:38.361Z,18.20
2022-12-04T00:21:09.687Z,18.43
2022-12-04T00:23:37.305Z,17.33
2022-12-04T00:26:23.415Z,18.00
2022-12-04T00:28:50.692Z,17.43
2022-12-04T00:31:22.746Z,15.97
2022-12-04T00:33:49.324Z,18.17
2022-12-04T00:36:18.992Z,17.27
2022-12-04T00:38:46.253Z,17.43
2022-12-04T00:41:14.359Z,17.77
2022-12-04T00:43:41.332Z,17.50
2022-12-04T00:46:08.257Z,18.60
2022-12-04T00:48:35.177Z,18.27
2022-12-04T00:51:03.853Z,18.77
2022-12-04T00:53:30.833Z,17.80
2022-12-04T00:55:57.700Z,18.90
2022-12-04T00:58:25.004Z,18.20
2022-12-04T01:01:00.820Z,18.50
2022-12-04T01:03:27.364Z,18.90
2022-12-04T01:05:53.804Z,18.47
2022-12-04T01:08:20.311Z,18.43
2022-12-04T01:10:46.830Z,19.13
2022-12-04T01:13:13.332Z,20.03
2022-12-04T01:15:42.432Z,19.57
2022-12-04T01:18:12.336Z,18.70
2022-12-04T01:20:38.847Z,19.23
2022-12-04T01:23:05.474Z,17.67
2022-12-04T01:25:32.348Z,18.53
2022-12-04T01:27:58.842Z,18.70
2022-12-04T01:30:25.348Z,19.33
2022-12-04T01:32:51.823Z,19.70
2022-12-04T01:35:21.424Z,18.27
2022-12-04T01:37:47.856Z,18.07
2022-12-04T01:40:16.126Z,18.30
2022-12-04T01:42:42.588Z,17.50
2022-12-04T01:45:46.056Z,18.33
2022-12-04T01:48:25.645Z,18.53
2022-12-04T01:50:58.437Z,19.20
2022-12-04T01:53:25.624Z,18.43
2022-12-04T01:55:52.223Z,17.87
2022-12-04T01:58:23.790Z,17.83
2022-12-04T02:00:58.194Z,17.43
2022-12-04T02:06:14.590Z,18.00
2022-12-04T02:08:41.287Z,17.73
2022-12-04T02:11:30.759Z,18.37
2022-12-04T02:14:05.260Z,18.70
2022-12-04T02:16:43.585Z,18.60
2022-12-04T02:19:58.686Z,18.87
2022-12-04T02:23:08.245Z,19.23
2022-12-04T02:26:07.045Z,18.00
2022-12-04T02:28:52.781Z,19.53
2022-12-04T02:31:26.301Z,19.13
2022-12-04T02:34:16.429Z,18.27
2022-12-04T02:36:55.746Z,18.63
2022-12-04T02:39:24.244Z,18.93
2022-12-04T02:42:05.657Z,18.93
2022-12-04T02:44:49.855Z,19.07
2022-12-04T02:47:23.097Z,18.03
2022-12-04T02:49:55.569Z,18.70
2022-12-04T02:52:28.236Z,17.10
2022-12-04T02:55:01.896Z,17.83
2022-12-04T02:57:35.441Z,19.33
2022-12-04T03:00:05.628Z,17.30
2022-12-04T03:02:39.371Z,19.30
2022-12-04T03:05:12.848Z,17.60
2022-12-04T03:07:45.949Z,18.00
2022-12-04T03:10:18.307Z,17.77
2022-12-04T03:12:50.393Z,17.63
2022-12-04T03:15:42.909Z,18.93
2022-12-04T03:18:23.648Z,18.73
2022-12-04T03:20:55.028Z,18.67
2022-12-04T03:23:28.302Z,19.83
2022-12-04T03:25:58.573Z,17.67
2022-12-04T03:28:57.514Z,17.60
2022-12-04T03:31:49.142Z,18.23
2022-12-04T03:34:25.754Z,17.80
2022-12-04T03:36:57.284Z,17.40
2022-12-04T03:39:38.981Z,17.77
2022-12-04T03:42:16.074Z,16.70
2022-12-04T03:45:14.903Z,16.80
2022-12-04T03:47:51.811Z,18.93
2022-12-04T03:50:38.484Z,17.13
2022-12-04T03:53:20.045Z,17.67
2022-12-04T03:56:02.115Z,19.07
2022-12-04T03:58:32.002Z,18.30
2022-12-04T04:01:03.948Z,18.67
2022-12-04T04:03:36.861Z,19.07
2022-12-04T04:06:10.455Z,19.43
2022-12-04T04:08:42.287Z,19.07
2022-12-04T04:11:23.631Z,18.73
2022-12-04T04:14:21.108Z,20.37
2022-12-04T04:17:11.949Z,20.03
2022-12-04T04:20:00.576Z,18.43
2022-12-04T04:22:46.012Z,19.57
2022-12-04T04:25:20.666Z,20.17
2022-12-04T04:27:58.647Z,19.70
2022-12-04T04:30:29.390Z,20.30
2022-12-04T04:33:10.968Z,20.67
2022-12-04T04:35:44.712Z,20.40
2022-12-04T04:38:22.220Z,20.27
2022-12-04T04:41:01.761Z,19.70
2022-12-04T04:43:40.145Z,21.00
2022-12-04T04:46:38.594Z,19.60
2022-12-04T04:49:08.683Z,19.87
2022-12-04T04:51:35.482Z,19.60
2022-12-04T04:54:06.353Z,20.17
2022-12-04T04:56:39.220Z,20.10
2022-12-04T04:59:05.636Z,19.53
2022-12-04T05:01:32.112Z,18.43
2022-12-04T05:03:58.605Z,19.83
2022-12-04T05:06:25.086Z,19.73
2022-12-04T05:08:51.536Z,17.37
2022-12-04T05:11:17.953Z,18.30
2022-12-04T05:13:44.476Z,18.33
2022-12-04T05:16:13.704Z,18.13
2022-12-04T05:18:40.830Z,16.37
2022-12-04T05:21:08.247Z,17.87
2022-12-04T05:23:35.367Z,16.63
2022-12-04T05:26:04.589Z,16.53
2022-12-04T05:28:31.202Z,15.67
2022-12-04T05:30:59.774Z,16.50
2022-12-04T05:33:26.242Z,16.20
2022-12-04T05:36:01.034Z,15.97
2022-12-04T05:38:27.603Z,16.90
2022-12-04T05:40:54.094Z,16.00
2022-12-04T05:43:20.643Z,16.03
2022-12-04T05:45:47.097Z,15.87
2022-12-04T05:48:13.539Z,16.53
2022-12-04T05:50:39.938Z,15.57
2022-12-04T05:53:06.353Z,15.60
2022-12-04T05:55:32.855Z,15.63
2022-12-04T05:57:59.292Z,16.27
2022-12-04T06:00:26.211Z,15.87
2022-12-04T06:02:52.703Z,15.83
2022-12-04T06:05:19.307Z,14.97
2022-12-04T06:07:45.923Z,15.60
2022-12-04T06:10:12.493Z,14.83
2022-12-04T06:12:38.964Z,13.17
2022-12-04T06:15:05.867Z,13.87
2022-12-04T06:17:32.354Z,12.57
2022-12-04T06:19:59.438Z,13.17
2022-12-04T06:22:26.181Z,12.70
2022-12-04T06:24:52.562Z,13.07
2022-12-04T06:27:28.016Z,13.27
2022-12-04T06:29:55.017Z,12.63
2022-12-04T06:32:22.304Z,13.40
2022-12-04T06:34:55.162Z,12.47
2022-12-04T06:37:23.965Z,12.90
2022-12-04T06:39:51.592Z,13.20
2022-12-04T06:42:18.297Z,13.43
2022-12-04T06:44:44.744Z,13.30
2022-12-04T06:47:11.279Z,13.73
2022-12-04T06:49:37.784Z,12.57
2022-12-04T06:52:04.226Z,12.53
2022-12-04T06:54:30.705Z,12.10
2022-12-04T06:56:57.147Z,11.90
2022-12-04T06:59:23.903Z,12.27
2022-12-04T07:01:50.607Z,12.20
2022-12-04T07:04:17.167Z,12.17
2022-12-04T07:06:43.627Z,11.77
2022-12-04T07:09:14.009Z,12.27
2022-12-04T07:11:42.348Z,14.33
2022-12-04T07:14:09.591Z,13.90
2022-12-04T07:16:40.829Z,13.63
2022-12-04T07:19:09.492Z,14.03
2022-12-04T07:21:35.963Z,12.37
2022-12-04T07:24:02.432Z,12.20
2022-12-04T07:26:30.432Z,12.57
2022-12-04T07:28:58.268Z,12.40
2022-12-04T07:31:26.703Z,11.87
2022-12-04T07:33:54.451Z,11.53
2022-12-04T07:36:22.815Z,11.67
2022-12-04T07:38:50.250Z,11.67
2022-12-04T07:41:17.349Z,11.33
2022-12-04T07:43:44.414Z,12.23
2022-12-04T07:46:16.815Z,11.83
2022-12-04T07:48:43.442Z,11.33
2022-12-04T07:51:15.687Z,11.67
2022-12-04T07:53:42.970Z,12.03
2022-12-04T07:56:10.863Z,12.50
2022-12-04T07:58:37.382Z,12.37
2022-12-04T08:01:11.075Z,11.63
2022-12-04T08:03:43.538Z,11.00
2022-12-04T08:06:12.186Z,13.07
2022-12-04T08:08:39.118Z,13.37
2022-12-04T08:11:07.733Z,11.60
2022-12-04T08:13:34.998Z,11.83
2022-12-04T08:16:02.909Z,10.40
2022-12-04T08:18:29.512Z,11.00
2022-12-04T08:21:03.860Z,11.50
2022-12-04T08:23:30.356Z,11.27
2022-12-04T08:25:59.719Z,11.40
2022-12-04T08:28:26.449Z,11.00
2022-12-04T08:30:52.946Z,13.90
2022-12-04T08:33:19.523Z,12.03
2022-12-04T08:35:45.932Z,12.07
2022-12-04T08:38:12.462Z,11.90
2022-12-04T08:40:38.914Z,12.23
2022-12-04T08:43:05.757Z,12.53
2022-12-04T08:45:32.170Z,13.23
2022-12-04T08:47:58.687Z,14.77
2022-12-04T08:50:25.104Z,14.73
2022-12-04T08:52:51.535Z,13.20
2022-12-04T08:55:17.951Z,12.50
2022-12-04T08:57:44.356Z,12.77
2022-12-04T09:00:12.848Z,12.23
2022-12-04T09:02:39.280Z,12.40
2022-12-04T09:05:05.887Z,13.67
2022-12-04T09:07:32.416Z,12.23
2022-12-04T09:09:59.104Z,11.93
2022-12-04T09:12:25.632Z,11.87
2022-12-04T09:14:52.037Z,13.17
2022-12-04T09:17:18.447Z,12.57
2022-12-04T09:19:44.952Z,11.40
2022-12-04T09:22:11.432Z,12.13
2022-12-04T09:24:37.860Z,13.40
2022-12-04T09:27:04.315Z,12.67
2022-12-04T09:29:30.745Z,12.73
2022-12-04T09:31:57.153Z,12.90
2022-12-04T09:34:23.584Z,12.00
2022-12-04T09:36:50.207Z,12.03
2022-12-04T09:39:16.635Z,11.70
2022-12-04T09:41:43.065Z,11.77
2022-12-04T09:44:09.444Z,11.70
2022-12-04T09:46:50.776Z,11.80
2022-12-04T09:49:25.486Z,12.80
2022-12-04T09:51:56.465Z,11.47
2022-12-04T09:54:29.680Z,10.93
2022-12-04T09:57:03.030Z,11.30
2022-12-04T09:59:31.942Z,12.37
2022-12-04T10:02:15.847Z,12.43
2022-12-04T10:04:42.404Z,11.73
2022-12-04T10:07:41.078Z,13.67
2022-12-04T10:10:31.216Z,12.60
2022-12-04T10:13:20.961Z,14.27
2022-12-04T10:15:47.395Z,12.70
2022-12-04T10:18:38.301Z,12.93
2022-12-04T10:21:20.381Z,12.67
2022-12-04T10:23:55.117Z,12.83
2022-12-04T10:26:27.522Z,12.63
2022-12-04T10:29:02.429Z,13.90
2022-12-04T10:31:30.514Z,13.90
2022-12-04T10:34:02.661Z,13.67
2022-12-04T10:36:33.484Z,13.07
2022-12-04T10:39:19.006Z,13.30
2022-12-04T10:41:49.206Z,13.53
2022-12-04T10:44:18.108Z,13.33
2022-12-04T10:46:46.547Z,13.73
2022-12-04T10:49:19.450Z,14.07
2022-12-04T10:51:46.854Z,14.10
2022-12-04T10:54:30.988Z,15.37
2022-12-04T10:57:00.653Z,14.73
2022-12-04T10:59:28.456Z,13.37
2022-12-04T11:02:26.946Z,14.50
2022-12-04T11:05:01.838Z,13.60
2022-12-04T11:07:33.981Z,15.23
2022-12-04T11:10:17.136Z,15.33
2022-12-04T11:12:57.139Z,15.53
2022-12-04T11:15:24.231Z,16.17
2022-12-04T11:17:52.408Z,16.13
2022-12-04T11:20:25.072Z,15.07
2022-12-04T11:22:59.035Z,15.43
2022-12-04T11:25:28.680Z,15.97
2022-12-04T11:27:59.435Z,15.97
2022-12-04T11:30:32.410Z,15.03
2022-12-04T11:33:00.109Z,15.67
2022-12-04T11:35:29.822Z,16.27
2022-12-04T11:38:09.797Z,13.70
2022-12-04T11:40:36.688Z,14.63
2022-12-04T11:43:14.262Z,14.57
2022-12-04T11:45:41.704Z,14.67
2022-12-04T11:48:22.337Z,14.57
2022-12-04T11:51:26.732Z,14.53
2022-12-04T11:53:56.076Z,13.87
2022-12-04T11:56:31.622Z,14.23
2022-12-04T11:58:57.970Z,14.27
2022-12-04T12:01:30.358Z,14.10
2022-12-04T12:04:02.900Z,14.00
2022-12-04T12:06:48.041Z,13.07
2022-12-04T12:09:25.708Z,13.57
2022-12-04T12:12:03.023Z,13.77
2022-12-04T12:14:41.103Z,13.13
2022-12-04T12:17:15.260Z,13.80
2022-12-04T12:20:06.471Z,12.93
2022-12-04T12:22:51.486Z,13.80
2022-12-04T12:25:29.701Z,13.83
2022-12-04T12:28:07.924Z,13.17
2022-12-04T12:31:06.413Z,13.70
2022-12-04T12:33:43.447Z,13.57
2022-12-04T12:36:12.483Z,13.00
2022-12-04T12:38:53.966Z,14.20
2022-12-04T12:41:29.772Z,13.37
2022-12-04T12:44:21.402Z,13.33
2022-12-04T12:47:00.400Z,13.17
2022-12-04T12:49:52.719Z,13.07
2022-12-04T12:52:35.967Z,13.87
2022-12-04T12:55:25.820Z,13.10
2022-12-04T12:58:04.693Z,12.97
2022-12-04T13:00:36.725Z,13.33
2022-12-04T13:03:28.077Z,13.50
2022-12-04T13:05:59.532Z,12.80
2022-12-04T13:08:30.702Z,12.67
2022-12-04T13:11:12.275Z,12.97
2022-12-04T13:13:57.945Z,12.43
2022-12-04T13:16:31.112Z,13.37
2022-12-04T13:19:18.350Z,12.97
2022-12-04T13:22:04.989Z,12.97
2022-12-04T13:24:47.656Z,12.93
2022-12-04T13:27:23.258Z,13.60
2022-12-04T13:30:15.130Z,13.40
2022-12-04T13:33:03.585Z,13.27
2022-12-04T13:36:01.598Z,13.73
2022-12-04T13:38:55.096Z,12.27
2022-12-04T13:41:26.204Z,12.93
2022-12-04T13:43:53.845Z,13.40
2022-12-04T13:46:49.247Z,13.63
2022-12-04T13:49:15.607Z,14.33
2022-12-04T13:51:42.600Z,14.20
2022-12-04T13:54:12.023Z,14.10
2022-12-04T13:56:53.450Z,14.20
2022-12-04T13:59:29.456Z,13.90
2022-12-04T14:02:01.290Z,14.83
2022-12-04T14:04:44.368Z,13.93
2022-12-04T14:07:51.567Z,14.70
2022-12-04T14:10:18.032Z,13.47
2022-12-04T14:13:02.189Z,14.33
2022-12-04T14:15:32.337Z,14.40
2022-12-04T14:18:01.284Z,15.30
2022-12-04T14:20:30.683Z,14.17
2022-12-04T14:23:16.332Z,14.97
2022-12-04T14:25:42.813Z,14.23
2022-12-04T14:28:27.776Z,14.10
2022-12-04T14:31:20.436Z,14.23
2022-12-04T14:33:58.734Z,14.37
2022-12-04T14:36:28.782Z,14.00
2022-12-04T14:39:03.596Z,15.43
2022-12-04T14:41:30.428Z,14.10
2022-12-04T14:43:57.584Z,13.93
2022-12-04T14:46:44.619Z,14.13
2022-12-04T14:49:23.046Z,14.07
2022-12-04T14:52:18.506Z,14.40
2022-12-04T14:55:15.974Z,14.87
2022-12-04T14:57:49.529Z,14.03
2022-12-04T15:00:22.298Z,16.57
2022-12-04T15:02:56.088Z,14.57
2022-12-04T15:05:29.037Z,13.77
2022-12-04T15:08:02.602Z,14.53
2022-12-04T15:10:49.881Z,13.83
2022-12-04T15:13:27.778Z,14.33
2022-12-04T15:15:54.525Z,12.67
2022-12-04T15:18:21.360Z,12.70
2022-12-04T15:20:48.023Z,11.97
2022-12-04T15:23:17.007Z,11.73
2022-12-04T15:25:47.260Z,10.73
2022-12-04T15:28:19.435Z,11.10
2022-12-04T15:30:49.904Z,10.60
2022-12-04T15:33:26.525Z,9.87
2022-12-04T15:36:00.259Z,10.23
2022-12-04T15:38:27.112Z,10.23
2022-12-04T15:40:59.965Z,11.37
2022-12-04T15:43:32.459Z,10.30
2022-12-04T15:45:59.453Z,10.47
2022-12-04T15:48:27.970Z,10.53
2022-12-04T15:51:00.756Z,9.70
2022-12-04T15:53:31.297Z,9.23
2022-12-04T15:56:02.531Z,11.00
2022-12-04T15:58:34.508Z,10.33
2022-12-04T16:01:07.713Z,10.30
2022-12-04T16:03:47.646Z,9.80
2022-12-04T16:06:17.130Z,10.20
2022-12-04T16:08:45.860Z,9.53
2022-12-04T16:11:21.578Z,9.77
2022-12-04T16:14:08.579Z,9.93
2022-12-04T16:16:38.211Z,10.17
2022-12-04T16:19:38.618Z,9.63
2022-12-04T16:22:13.227Z,9.43
2022-12-04T16:24:39.817Z,9.70
2022-12-04T16:27:12.504Z,9.50
2022-12-04T16:29:39.041Z,9.87
2022-12-04T16:32:05.913Z,9.87
2022-12-04T16:34:32.737Z,9.83
2022-12-04T16:36:59.232Z,10.17
2022-12-04T16:39:25.676Z,10.73
2022-12-04T16:41:52.096Z,11.70
2022-12-04T16:44:18.562Z,11.90
2022-12-04T16:46:45.139Z,11.67
2022-12-04T16:49:12.973Z,11.20
2022-12-04T16:51:45.725Z,11.70
2022-12-04T16:54:13.168Z,12.20
2022-12-04T16:56:39.645Z,24.00
2022-12-04T16:59:10.435Z,18.73
2022-12-04T17:01:43.613Z,11.37
2022-12-04T17:04:10.426Z,11.50
2022-12-04T17:06:37.137Z,11.33
2022-12-04T17:09:04.413Z,10.83
2022-12-04T17:11:30.902Z,11.57
2022-12-04T17:14:07.014Z,12.37
2022-12-04T17:16:38.107Z,12.10
2022-12-04T17:19:04.928Z,12.67
2022-12-04T17:21:31.451Z,13.13
2022-12-04T17:23:57.935Z,12.60
2022-12-04T17:26:24.332Z,12.13
2022-12-04T17:28:51.001Z,13.00
2022-12-04T17:31:23.549Z,12.40
2022-12-04T17:33:50.825Z,13.10
2022-12-04T17:36:20.528Z,13.50
2022-12-04T17:38:47.318Z,12.23
2022-12-04T17:41:15.320Z,12.90
2022-12-04T17:43:43.040Z,13.80
2022-12-04T17:46:17.344Z,13.33
2022-12-04T17:48:43.805Z,12.93
2022-12-04T17:51:15.655Z,13.47
2022-12-04T17:53:42.317Z,13.97
2022-12-04T17:56:11.749Z,14.50
2022-12-04T17:58:38.552Z,13.67
2022-12-04T18:01:09.693Z,15.23
2022-12-04T18:03:36.467Z,14.77
2022-12-04T18:06:21.312Z,14.97
2022-12-04T18:08:50.281Z,14.17
2022-12-04T18:11:20.392Z,13.23
2022-12-04T18:13:49.021Z,15.17
2022-12-04T18:16:15.867Z,15.87
2022-12-04T18:18:42.525Z,14.40
2022-12-04T18:21:11.938Z,15.17
2022-12-04T18:23:44.935Z,15.90
2022-12-04T18:26:18.503Z,15.73
2022-12-04T18:28:45.720Z,14.03
2022-12-04T18:31:14.062Z,15.97
2022-12-04T18:33:42.277Z,16.50
2022-12-04T18:36:16.493Z,16.33
2022-12-04T18:38:43.704Z,14.87
2022-12-04T18:41:12.612Z,15.97
2022-12-04T18:43:41.606Z,14.97
2022-12-04T18:46:11.098Z,13.40
2022-12-04T18:48:40.109Z,14.73
2022-12-04T18:51:29.500Z,13.93
2022-12-04T18:54:00.023Z,13.93
2022-12-04T18:56:27.023Z,13.83
2022-12-04T18:59:08.636Z,14.17
2022-12-04T19:01:35.155Z,13.47
2022-12-04T19:04:06.058Z,14.57
2022-12-04T19:06:38.929Z,14.80
2022-12-04T19:09:09.216Z,13.60
2022-12-04T19:11:38.829Z,13.67
2022-12-04T19:14:14.729Z,14.07
2022-12-04T19:16:43.696Z,11.77
2022-12-04T19:19:14.006Z,12.33
2022-12-04T19:21:40.413Z,12.60
2022-12-04T19:24:07.374Z,12.93
2022-12-04T19:26:35.001Z,13.53
2022-12-04T19:29:03.192Z,13.50
2022-12-04T19:31:33.158Z,14.90
2022-12-04T19:33:59.865Z,15.00
2022-12-04T19:36:28.879Z,14.13
2022-12-04T19:38:57.368Z,13.30
2022-12-04T19:41:26.943Z,13.27
2022-12-04T19:43:56.540Z,14.07
2022-12-04T19:46:26.179Z,13.70
2022-12-04T19:48:54.681Z,14.87
2022-12-04T19:51:21.275Z,15.27
2022-12-04T19:53:48.835Z,15.63
2022-12-04T19:56:18.469Z,15.47
2022-12-04T19:58:45.269Z,16.90
2022-12-04T20:01:17.304Z,15.50
2022-12-04T20:03:44.275Z,16.40
2022-12-04T20:06:14.023Z,16.27
2022-12-04T20:08:42.088Z,15.93
2022-12-04T20:11:13.270Z,17.70
2022-12-04T20:13:40.703Z,17.13
2022-12-04T20:16:10.977Z,15.37
2022-12-04T20:18:39.228Z,16.43
2022-12-04T20:21:10.922Z,16.40
2022-12-04T20:23:42.476Z,15.63
2022-12-04T20:26:11.403Z,16.33
2022-12-04T20:28:38.480Z,17.03
2022-12-04T20:31:33.156Z,17.63
2022-12-04T20:34:01.732Z,15.70
2022-12-04T20:36:30.205Z,14.40
2022-12-04T20:38:58.388Z,13.97
2022-12-04T20:41:27.581Z,14.63
2022-12-04T20:43:54.978Z,14.37
2022-12-04T20:46:33.715Z,14.53
2022-12-04T20:49:01.948Z,13.50
2022-12-04T20:51:31.306Z,14.53
2022-12-04T20:53:59.377Z,13.27
2022-12-04T20:56:31.948Z,13.47
2022-12-04T20:59:00.646Z,12.00
2022-12-04T21:01:27.964Z,12.03
2022-12-04T21:03:54.496Z,12.63
2022-12-04T21:06:23.850Z,11.77
2022-12-04T21:08:54.605Z,12.77
2022-12-04T21:11:30.750Z,12.17
2022-12-04T21:14:16.820Z,13.17
2022-12-04T21:16:43.876Z,12.43
2022-12-04T21:19:12.193Z,12.43
2022-12-04T21:21:38.816Z,11.93
2022-12-04T21:24:07.769Z,11.97
2022-12-04T21:26:34.652Z,12.43
2022-12-04T21:29:03.486Z,11.47
2022-12-04T21:31:30.514Z,13.33
2022-12-04T21:34:01.484Z,12.07
2022-12-04T21:36:28.685Z,11.57
2022-12-04T21:38:55.758Z,12.03
2022-12-04T21:41:41.961Z,12.70
2022-12-04T21:44:11.860Z,12.60
2022-12-04T21:46:39.064Z,10.83
2022-12-04T21:49:05.858Z,11.53
2022-12-04T21:51:56.129Z,12.67
2022-12-04T21:54:19.185Z,11.93
2022-12-04T21:56:45.718Z,12.97
2022-12-04T21:59:12.288Z,11.63
2022-12-04T22:01:39.368Z,14.07
2022-12-04T22:04:06.024Z,13.23
2022-12-04T22:06:36.043Z,13.03
2022-12-04T22:09:05.952Z,13.50
2022-12-04T22:11:32.525Z,12.83
2022-12-04T22:13:59.033Z,12.47
2022-12-04T22:16:30.327Z,13.43
2022-12-04T22:18:58.858Z,12.57
2022-12-04T22:21:26.739Z,12.20
2022-12-04T22:24:01.568Z,12.07
2022-12-04T22:26:29.224Z,12.27
2022-12-04T22:28:56.161Z,12.73
2022-12-04T22:31:25.814Z,12.67
2022-12-04T22:33:54.597Z,14.43
2022-12-04T22:36:23.972Z,15.07
2022-12-04T22:39:09.898Z,15.27
2022-12-04T22:41:37.854Z,13.53
2022-12-04T22:44:04.612Z,14.07
2022-12-04T22:46:31.372Z,13.50
2022-12-04T22:48:59.349Z,12.30
2022-12-04T22:51:27.121Z,12.07
2022-12-04T22:53:55.842Z,13.13
2022-12-04T22:56:28.032Z,12.53
2022-12-04T22:58:55.157Z,12.40
2022-12-04T23:01:29.686Z,13.03
2022-12-04T23:03:56.577Z,13.07
2022-12-04T23:06:26.004Z,13.17
2022-12-04T23:09:00.486Z,12.40
2022-12-04T23:11:27.890Z,12.10
2022-12-04T23:14:02.530Z,11.63
2022-12-04T23:16:31.304Z,12.27
2022-12-04T23:18:57.996Z,12.30
2022-12-04T23:21:24.866Z,13.10
2022-12-04T23:23:53.394Z,14.70
2022-12-04T23:26:23.764Z,14.67
2022-12-04T23:28:50.445Z,13.03
2022-12-04T23:31:17.676Z,12.27
2022-12-04T23:33:44.398Z,12.70
2022-12-04T23:36:12.414Z,13.37
2022-12-04T23:38:40.497Z,13.77
2022-12-04T23:41:12.403Z,13.43
2022-12-04T23:43:40.105Z,14.87
2022-12-04T23:46:11.180Z,14.63
2022-12-04T23:48:39.847Z,13.13
2022-12-04T23:51:07.722Z,13.80
2022-12-04T23:53:34.596Z,12.37
2022-12-04T23:56:07.065Z,13.43
2022-12-04T23:58:34.634Z,13.17
